VOE18RG LFBD-LICJ
Flight info
| Callsign | VOE18RG |
|---|---|
| Flight time | N/A |
| Altitude | 35000 |
| Route | OBLOC DCT SECHE DCT SOVET DCT FJR/N0448F370 DCT ROVOT DCT PADKO/N0445F380 DCT STP/N0448F370 DCT MERLU DCT RAPUR DCT RATAP DCT BTA DCT DOKAR DCT SUNEV DCT NEMIT DCT TINTO DCT TURMO DCT LURON |
| Aircraft | A319/M-SDE3FGHIRWY/LB1 |
Departure
| Time | 2026-04-29 13:25 |
|---|---|
| Airport | Bordeaux–Mérignac Airport (LFBD) |
Arrival
| Time | N/A |
|---|---|
| Airport | Falcone–Borsellino Airport (LICJ) |
| Time | Latitude | Longitude | Altitude | Speed | Heading |
|---|---|---|---|---|---|
| 2026-04-29 12:56 | 44.82981 | -0.70463 | 163 ft | 0 kts | 357° |
| 2026-04-29 12:58 | 44.82980 | -0.70463 | 163 ft | 0 kts | 357° |
| 2026-04-29 13:15 | 44.82965 | -0.70461 | 163 ft | 4 kts | 294° |
| 2026-04-29 13:15 | 44.82952 | -0.70430 | 163 ft | 4 kts | 310° |
| 2026-04-29 13:15 | 44.82940 | -0.70398 | 163 ft | 4 kts | 266° |
| 2026-04-29 13:15 | 44.82948 | -0.70368 | 163 ft | 1 kts | 224° |
| 2026-04-29 13:16 | 44.82952 | -0.70363 | 163 ft | 1 kts | 224° |
| 2026-04-29 13:18 | 44.82948 | -0.70369 | 163 ft | 3 kts | 224° |
| 2026-04-29 13:19 | 44.82939 | -0.70380 | 163 ft | 2 kts | 224° |
| 2026-04-29 13:19 | 44.82918 | -0.70409 | 163 ft | 7 kts | 224° |
| 2026-04-29 13:19 | 44.82874 | -0.70473 | 163 ft | 11 kts | 231° |
| 2026-04-29 13:19 | 44.82865 | -0.70573 | 163 ft | 11 kts | 284° |
| 2026-04-29 13:20 | 44.82888 | -0.70689 | 163 ft | 13 kts | 287° |
| 2026-04-29 13:20 | 44.82915 | -0.70812 | 163 ft | 13 kts | 287° |
| 2026-04-29 13:20 | 44.82942 | -0.70938 | 163 ft | 14 kts | 285° |
| 2026-04-29 13:20 | 44.82974 | -0.71094 | 159 ft | 19 kts | 288° |
| 2026-04-29 13:21 | 44.83015 | -0.71271 | 161 ft | 18 kts | 288° |
| 2026-04-29 13:21 | 44.83047 | -0.71434 | 163 ft | 17 kts | 287° |
| 2026-04-29 13:21 | 44.83082 | -0.71598 | 162 ft | 18 kts | 287° |
| 2026-04-29 13:21 | 44.83116 | -0.71756 | 164 ft | 17 kts | 287° |
| 2026-04-29 13:22 | 44.83150 | -0.71918 | 163 ft | 18 kts | 286° |
| 2026-04-29 13:22 | 44.83155 | -0.72078 | 163 ft | 16 kts | 231° |
| 2026-04-29 13:22 | 44.83047 | -0.72135 | 163 ft | 17 kts | 197° |
| 2026-04-29 13:22 | 44.83013 | -0.72245 | 164 ft | 14 kts | 287° |
| 2026-04-29 13:23 | 44.83047 | -0.72404 | 164 ft | 21 kts | 287° |
| 2026-04-29 13:23 | 44.83094 | -0.72623 | 162 ft | 24 kts | 287° |
| 2026-04-29 13:23 | 44.83145 | -0.72821 | 162 ft | 16 kts | 311° |
| 2026-04-29 13:23 | 44.83134 | -0.72915 | 163 ft | 10 kts | 158° |
| 2026-04-29 13:24 | 44.83126 | -0.72823 | 162 ft | 10 kts | 90° |
| 2026-04-29 13:24 | 44.83114 | -0.72724 | 162 ft | 0 kts | 106° |
| 2026-04-29 13:24 | 44.83113 | -0.72719 | 162 ft | 7 kts | 106° |
| 2026-04-29 13:24 | 44.83014 | -0.72250 | 165 ft | 89 kts | 107° |
| 2026-04-29 13:25 | 44.82775 | -0.71120 | 168 ft | 151 kts | 107° |
| 2026-04-29 13:25 | 44.81798 | -0.68556 | 1448 ft | 155 kts | 146° |
| 2026-04-29 13:25 | 44.80743 | -0.68166 | 2051 ft | 169 kts | 179° |
| 2026-04-29 13:26 | 44.79586 | -0.68885 | 2384 ft | 201 kts | 218° |
| 2026-04-29 13:26 | 44.78509 | -0.70347 | 2796 ft | 228 kts | 221° |
| 2026-04-29 13:26 | 44.77105 | -0.71528 | 3268 ft | 248 kts | 189° |
| 2026-04-29 13:26 | 44.75334 | -0.71688 | 3973 ft | 259 kts | 177° |
| 2026-04-29 13:27 | 44.73525 | -0.71545 | 4926 ft | 262 kts | 165° |
| 2026-04-29 13:27 | 44.71896 | -0.70437 | 5925 ft | 263 kts | 142° |
| 2026-04-29 13:27 | 44.70635 | -0.68628 | 6953 ft | 264 kts | 126° |
| 2026-04-29 13:27 | 44.69822 | -0.66299 | 7939 ft | 269 kts | 108° |
| 2026-04-29 13:28 | 44.69561 | -0.63665 | 8887 ft | 276 kts | 95° |
| 2026-04-29 13:28 | 44.69474 | -0.60962 | 9811 ft | 280 kts | 97° |
| 2026-04-29 13:28 | 44.69372 | -0.58155 | 10374 ft | 298 kts | 97° |
| 2026-04-29 13:28 | 44.69253 | -0.55130 | 10688 ft | 321 kts | 97° |
| 2026-04-29 13:29 | 44.69123 | -0.51880 | 10950 ft | 346 kts | 96° |
| 2026-04-29 13:29 | 44.68986 | -0.48435 | 11425 ft | 359 kts | 97° |
| 2026-04-29 13:29 | 44.68847 | -0.44902 | 12110 ft | 365 kts | 97° |
| 2026-04-29 13:29 | 44.68712 | -0.41356 | 12794 ft | 372 kts | 97° |
| 2026-04-29 13:30 | 44.68579 | -0.37702 | 13556 ft | 377 kts | 96° |
| 2026-04-29 13:30 | 44.68440 | -0.34010 | 14305 ft | 379 kts | 97° |
| 2026-04-29 13:30 | 44.68295 | -0.30296 | 14980 ft | 382 kts | 97° |
| 2026-04-29 13:30 | 44.68145 | -0.26551 | 15641 ft | 386 kts | 97° |
| 2026-04-29 13:31 | 44.67994 | -0.22772 | 16285 ft | 389 kts | 97° |
| 2026-04-29 13:31 | 44.67825 | -0.18966 | 16900 ft | 392 kts | 99° |
| 2026-04-29 13:31 | 44.67337 | -0.15209 | 17513 ft | 391 kts | 109° |
| 2026-04-29 13:31 | 44.66385 | -0.11639 | 18128 ft | 390 kts | 119° |
| 2026-04-29 13:32 | 44.65186 | -0.08266 | 18728 ft | 393 kts | 120° |
| 2026-04-29 13:32 | 44.63960 | -0.04819 | 19313 ft | 396 kts | 120° |
| 2026-04-29 13:32 | 44.62742 | -0.01374 | 19880 ft | 400 kts | 120° |
| 2026-04-29 13:32 | 44.61490 | 0.02177 | 20420 ft | 403 kts | 120° |
| 2026-04-29 13:33 | 44.60233 | 0.05730 | 20837 ft | 410 kts | 118° |
| 2026-04-29 13:33 | 44.58953 | 0.09344 | 21219 ft | 417 kts | 118° |
| 2026-04-29 13:33 | 44.57656 | 0.12998 | 21679 ft | 421 kts | 119° |
| 2026-04-29 13:33 | 44.56346 | 0.16688 | 22147 ft | 424 kts | 119° |
| 2026-04-29 13:34 | 44.55040 | 0.20358 | 22601 ft | 428 kts | 119° |
| 2026-04-29 13:34 | 44.53708 | 0.24094 | 23042 ft | 431 kts | 119° |
| 2026-04-29 13:34 | 44.52363 | 0.27862 | 23463 ft | 434 kts | 119° |
| 2026-04-29 13:34 | 44.51008 | 0.31652 | 23881 ft | 437 kts | 119° |
| 2026-04-29 13:35 | 44.49640 | 0.35469 | 24296 ft | 440 kts | 119° |
| 2026-04-29 13:35 | 44.48260 | 0.39304 | 24705 ft | 442 kts | 119° |
| 2026-04-29 13:35 | 44.46873 | 0.43155 | 25098 ft | 445 kts | 119° |
| 2026-04-29 13:35 | 44.45479 | 0.47032 | 25480 ft | 447 kts | 119° |
| 2026-04-29 13:36 | 44.44100 | 0.50954 | 25857 ft | 451 kts | 116° |
| 2026-04-29 13:36 | 44.43027 | 0.55095 | 26219 ft | 456 kts | 110° |
| 2026-04-29 13:36 | 44.42064 | 0.59269 | 26571 ft | 458 kts | 110° |
| 2026-04-29 13:36 | 44.41086 | 0.63518 | 26914 ft | 460 kts | 110° |
| 2026-04-29 13:37 | 44.40101 | 0.67783 | 27241 ft | 462 kts | 110° |
| 2026-04-29 13:37 | 44.39111 | 0.72072 | 27560 ft | 464 kts | 110° |
| 2026-04-29 13:37 | 44.38113 | 0.76376 | 27868 ft | 467 kts | 110° |
| 2026-04-29 13:37 | 44.37108 | 0.80704 | 28182 ft | 469 kts | 110° |
| 2026-04-29 13:38 | 44.36094 | 0.85047 | 28478 ft | 471 kts | 110° |
| 2026-04-29 13:38 | 44.35071 | 0.89406 | 28762 ft | 473 kts | 110° |
| 2026-04-29 13:38 | 44.34057 | 0.93728 | 29047 ft | 475 kts | 110° |
| 2026-04-29 13:38 | 44.33031 | 0.98111 | 29458 ft | 474 kts | 110° |
| 2026-04-29 13:39 | 44.32005 | 1.02479 | 29877 ft | 473 kts | 110° |
| 2026-04-29 13:39 | 44.30980 | 1.06835 | 30282 ft | 472 kts | 110° |
| 2026-04-29 13:39 | 44.29950 | 1.11184 | 30680 ft | 471 kts | 110° |
| 2026-04-29 13:39 | 44.28918 | 1.15528 | 31068 ft | 471 kts | 110° |
| 2026-04-29 13:40 | 44.27890 | 1.19854 | 31462 ft | 470 kts | 110° |
| 2026-04-29 13:40 | 44.26864 | 1.24176 | 31863 ft | 469 kts | 110° |
| 2026-04-29 13:40 | 44.25851 | 1.28435 | 32235 ft | 469 kts | 110° |
| 2026-04-29 13:40 | 44.24822 | 1.32744 | 32615 ft | 468 kts | 110° |
| 2026-04-29 13:41 | 44.23793 | 1.37038 | 33010 ft | 467 kts | 111° |
| 2026-04-29 13:41 | 44.22761 | 1.41332 | 33382 ft | 466 kts | 111° |
| 2026-04-29 13:41 | 44.21735 | 1.45610 | 33760 ft | 465 kts | 110° |
| 2026-04-29 13:41 | 44.20712 | 1.49886 | 34143 ft | 465 kts | 111° |
| 2026-04-29 13:42 | 44.19689 | 1.54157 | 34527 ft | 464 kts | 111° |
| 2026-04-29 13:42 | 44.18667 | 1.58415 | 34856 ft | 464 kts | 110° |
| 2026-04-29 13:42 | 44.16627 | 1.66852 | 34953 ft | 462 kts | 110° |
| 2026-04-29 13:43 | 44.14557 | 1.75326 | 34954 ft | 462 kts | 111° |
| 2026-04-29 13:43 | 44.12495 | 1.83789 | 34952 ft | 462 kts | 110° |
| 2026-04-29 13:44 | 44.10428 | 1.92246 | 34962 ft | 462 kts | 111° |
| 2026-04-29 13:44 | 44.08356 | 2.00695 | 34961 ft | 461 kts | 111° |
| 2026-04-29 13:45 | 44.06288 | 2.09078 | 34963 ft | 461 kts | 111° |
| 2026-04-29 13:45 | 44.04203 | 2.17518 | 34964 ft | 461 kts | 111° |
| 2026-04-29 13:46 | 44.02107 | 2.25949 | 34965 ft | 462 kts | 111° |
| 2026-04-29 13:46 | 44.00015 | 2.34381 | 34964 ft | 462 kts | 111° |
| 2026-04-29 13:47 | 43.97924 | 2.42752 | 34973 ft | 462 kts | 111° |
| 2026-04-29 13:47 | 43.95811 | 2.51164 | 34982 ft | 461 kts | 111° |
| 2026-04-29 13:48 | 43.93696 | 2.59568 | 34985 ft | 462 kts | 111° |
| 2026-04-29 13:48 | 43.91564 | 2.67953 | 34984 ft | 460 kts | 111° |
| 2026-04-29 13:49 | 43.89440 | 2.76282 | 34981 ft | 463 kts | 111° |